createdAt,value
2019-01-02T00:00:54.048Z,1010.72
2019-01-02T00:01:53.994Z,1010.76
2019-01-02T00:02:53.939Z,1010.73
2019-01-02T00:03:54.034Z,1010.84
2019-01-02T00:04:53.932Z,1010.80
2019-01-02T00:05:53.912Z,1010.73
2019-01-02T00:06:53.971Z,1010.73
2019-01-02T00:07:53.971Z,1010.82
2019-01-02T00:08:53.900Z,1010.62
2019-01-02T00:09:53.883Z,1010.70
2019-01-02T00:10:53.884Z,1010.66
2019-01-02T00:11:53.875Z,1010.70
2019-01-02T00:12:53.856Z,1010.72
2019-01-02T00:13:53.852Z,1010.67
2019-01-02T00:14:53.892Z,1010.77
2019-01-02T00:15:53.817Z,1010.72
2019-01-02T00:16:53.869Z,1010.72
2019-01-02T00:17:53.798Z,1010.75
2019-01-02T00:18:53.758Z,1010.75
2019-01-02T00:19:53.762Z,1010.80
2019-01-02T00:20:53.741Z,1010.72
2019-01-02T00:21:53.791Z,1010.77
2019-01-02T00:22:53.709Z,1010.76
2019-01-02T00:23:53.705Z,1010.76
2019-01-02T00:24:53.692Z,1010.70
2019-01-02T00:25:53.677Z,1010.79
2019-01-02T00:26:53.687Z,1010.75
2019-01-02T00:27:53.691Z,1010.79
2019-01-02T00:28:53.651Z,1010.88
2019-01-02T00:29:53.639Z,1010.85
2019-01-02T00:30:53.639Z,1010.80
2019-01-02T00:31:53.610Z,1010.86
2019-01-02T00:32:53.645Z,1010.81
2019-01-02T00:33:53.612Z,1010.89
2019-01-02T00:34:53.583Z,1010.89
2019-01-02T00:35:53.569Z,1010.87
2019-01-02T00:36:53.566Z,1010.88
2019-01-02T00:37:53.566Z,1010.88
2019-01-02T00:38:53.539Z,1010.88
2019-01-02T00:39:53.534Z,1010.92
2019-01-02T00:40:53.533Z,1010.91
2019-01-02T00:41:53.518Z,1010.89
2019-01-02T00:42:53.517Z,1010.93
2019-01-02T00:43:53.506Z,1010.79
2019-01-02T00:44:53.487Z,1010.91
2019-01-02T00:45:53.478Z,1010.83
2019-01-02T00:46:53.456Z,1010.85
2019-01-02T00:47:53.483Z,1010.86
2019-01-02T00:48:53.438Z,1010.84
2019-01-02T00:49:53.430Z,1010.88
2019-01-02T00:50:53.437Z,1010.88
2019-01-02T00:51:53.429Z,1010.87
2019-01-02T00:52:53.448Z,1010.91
2019-01-02T00:53:53.402Z,1010.98
2019-01-02T00:54:53.377Z,1010.91
2019-01-02T00:55:53.368Z,1010.93
2019-01-02T00:56:53.360Z,1010.98
2019-01-02T00:57:53.358Z,1011.01
2019-01-02T00:58:53.360Z,1011.00
2019-01-02T00:59:53.324Z,1011.03
2019-01-02T01:00:53.329Z,1011.09
2019-01-02T01:01:53.297Z,1011.13
2019-01-02T01:02:53.322Z,1011.11
2019-01-02T01:03:53.293Z,1011.14
2019-01-02T01:04:53.279Z,1011.15
2019-01-02T01:05:53.259Z,1011.17
2019-01-02T01:06:53.251Z,1011.13
2019-01-02T01:07:53.256Z,1011.09
2019-01-02T01:08:53.265Z,1011.20
2019-01-02T01:09:53.220Z,1011.20
2019-01-02T01:10:53.212Z,1011.16
2019-01-02T01:11:53.203Z,1011.14
2019-01-02T01:12:53.185Z,1011.11
2019-01-02T01:13:53.193Z,1011.12
2019-01-02T01:14:53.170Z,1011.11
2019-01-02T01:15:53.155Z,1011.15
2019-01-02T01:16:53.144Z,1011.16
2019-01-02T01:17:53.134Z,1011.24
2019-01-02T01:18:53.146Z,1011.20
2019-01-02T01:19:53.118Z,1011.20
2019-01-02T01:20:53.111Z,1011.23
2019-01-02T01:21:53.096Z,1011.25
2019-01-02T01:22:53.093Z,1011.22
2019-01-02T01:23:53.091Z,1011.23
2019-01-02T01:24:53.071Z,1011.23
2019-01-02T01:25:53.092Z,1011.26
2019-01-02T01:26:53.045Z,1011.29
2019-01-02T01:27:53.030Z,1011.26
2019-01-02T01:28:53.036Z,1011.30
2019-01-02T01:29:53.010Z,1011.34
2019-01-02T01:30:53.002Z,1011.32
2019-01-02T01:31:52.995Z,1011.39
2019-01-02T01:32:52.981Z,1011.37
2019-01-02T01:33:52.990Z,1011.33
2019-01-02T01:34:53.522Z,1011.34
2019-01-02T01:35:52.950Z,1011.33
2019-01-02T01:36:52.942Z,1011.45
2019-01-02T01:37:52.933Z,1011.41
2019-01-02T01:38:52.928Z,1011.30
2019-01-02T01:39:52.904Z,1011.40
2019-01-02T01:40:52.902Z,1011.44
2019-01-02T01:41:52.887Z,1011.41
2019-01-02T01:42:52.873Z,1011.42
2019-01-02T01:43:52.893Z,1011.34
2019-01-02T01:44:52.854Z,1011.34
2019-01-02T01:45:52.848Z,1011.35
2019-01-02T01:46:52.837Z,1011.41
2019-01-02T01:47:52.829Z,1011.33
2019-01-02T01:48:52.807Z,1011.34
2019-01-02T01:49:52.812Z,1011.28
2019-01-02T01:50:52.788Z,1011.33
2019-01-02T01:51:52.777Z,1011.35
2019-01-02T01:52:52.767Z,1011.35
2019-01-02T01:53:52.759Z,1011.30
2019-01-02T01:54:52.771Z,1011.32
2019-01-02T01:55:52.734Z,1011.30
2019-01-02T01:56:52.721Z,1011.42
2019-01-02T01:57:52.708Z,1011.41
2019-01-02T01:58:52.701Z,1011.37
2019-01-02T01:59:52.706Z,1011.49
2019-01-02T02:00:52.683Z,1011.41
2019-01-02T02:01:52.670Z,1011.46
2019-01-02T02:02:52.660Z,1011.47
2019-01-02T02:03:52.659Z,1011.50
2019-01-02T02:04:52.657Z,1011.46
2019-01-02T02:05:52.633Z,1011.56
2019-01-02T02:06:52.620Z,1011.42
2019-01-02T02:07:52.610Z,1011.48
2019-01-02T02:08:52.600Z,1011.55
2019-01-02T02:09:52.600Z,1011.51
2019-01-02T02:10:52.579Z,1011.48
2019-01-02T02:11:52.560Z,1011.51
2019-01-02T02:12:54.019Z,1011.45
2019-01-02T02:13:52.541Z,1011.46
2019-01-02T02:14:52.538Z,1011.54
2019-01-02T02:15:52.518Z,1011.50
2019-01-02T02:16:52.512Z,1011.55
2019-01-02T02:17:52.495Z,1011.59
2019-01-02T02:18:52.485Z,1011.51
2019-01-02T02:19:52.493Z,1011.48
2019-01-02T02:20:52.466Z,1011.65
2019-01-02T02:21:52.457Z,1011.56
2019-01-02T02:22:52.443Z,1011.53
2019-01-02T02:23:52.435Z,1011.63
2019-01-02T02:24:52.445Z,1011.60
2019-01-02T02:25:52.416Z,1011.69
2019-01-02T02:26:52.401Z,1011.60
2019-01-02T02:27:52.394Z,1011.67
2019-01-02T02:28:52.381Z,1011.61
2019-01-02T02:29:52.398Z,1011.65
2019-01-02T02:30:52.355Z,1011.64
2019-01-02T02:31:52.360Z,1011.73
2019-01-02T02:32:52.343Z,1011.74
2019-01-02T02:33:52.328Z,1011.77
2019-01-02T02:34:52.315Z,1011.81
2019-01-02T02:35:52.319Z,1011.76
2019-01-02T02:36:52.291Z,1011.69
2019-01-02T02:37:52.283Z,1011.73
2019-01-02T02:38:52.290Z,1011.84
2019-01-02T02:39:52.261Z,1011.69
2019-01-02T02:40:52.260Z,1011.86
2019-01-02T02:41:52.236Z,1011.82
2019-01-02T02:42:52.227Z,1011.76
2019-01-02T02:43:52.217Z,1011.79
2019-01-02T02:44:52.250Z,1011.72
2019-01-02T02:45:52.206Z,1011.75
2019-01-02T02:46:52.189Z,1011.76
2019-01-02T02:47:52.174Z,1011.81
2019-01-02T02:48:52.162Z,1011.76
2019-01-02T02:49:52.150Z,1011.79
2019-01-02T02:50:52.152Z,1011.76
2019-01-02T02:51:52.127Z,1011.66
2019-01-02T02:52:52.121Z,1011.72
2019-01-02T02:53:52.112Z,1011.80
2019-01-02T02:54:52.097Z,1011.74
2019-01-02T02:55:52.111Z,1011.74
2019-01-02T02:56:52.080Z,1011.83
2019-01-02T02:57:52.068Z,1011.78
2019-01-02T02:58:52.082Z,1011.77
2019-01-02T02:59:52.042Z,1011.77
2019-01-02T03:00:52.043Z,1011.75
2019-01-02T03:01:52.026Z,1011.78
2019-01-02T03:02:52.008Z,1011.76
2019-01-02T03:03:51.994Z,1011.82
2019-01-02T03:04:51.986Z,1011.75
2019-01-02T03:05:51.988Z,1011.81
2019-01-02T03:06:53.833Z,1011.76
2019-01-02T03:07:51.953Z,1011.75
2019-01-02T03:08:51.952Z,1011.73
2019-01-02T03:09:51.935Z,1011.79
2019-01-02T03:10:51.941Z,1011.71
2019-01-02T03:11:51.908Z,1011.75
2019-01-02T03:12:51.900Z,1011.72
2019-01-02T03:13:51.887Z,1011.78
2019-01-02T03:14:51.883Z,1011.84
2019-01-02T03:15:51.865Z,1011.87
2019-01-02T03:16:51.866Z,1011.84
2019-01-02T03:17:51.850Z,1011.75
2019-01-02T03:18:51.836Z,1011.93
2019-01-02T03:19:51.828Z,1011.92
2019-01-02T03:20:51.817Z,1011.99
2019-01-02T03:21:51.818Z,1012.04
2019-01-02T03:22:51.797Z,1011.95
2019-01-02T03:23:51.785Z,1011.99
2019-01-02T03:24:51.767Z,1012.05
2019-01-02T03:25:51.756Z,1011.99
2019-01-02T03:26:51.766Z,1012.10
2019-01-02T03:27:51.740Z,1012.11
2019-01-02T03:28:51.725Z,1012.17
2019-01-02T03:29:51.718Z,1012.13
2019-01-02T03:30:51.711Z,1012.18
2019-01-02T03:31:51.712Z,1012.19
2019-01-02T03:32:51.682Z,1012.25
2019-01-02T03:33:51.671Z,1012.32
2019-01-02T03:34:51.660Z,1012.30
2019-01-02T03:35:51.653Z,1012.30
2019-01-02T03:36:51.657Z,1012.45
2019-01-02T03:37:51.634Z,1012.41
2019-01-02T03:38:51.625Z,1012.44
2019-01-02T03:39:51.610Z,1012.43
2019-01-02T03:40:51.599Z,1012.62
2019-01-02T03:41:51.605Z,1012.54
2019-01-02T03:42:51.576Z,1012.57
2019-01-02T03:43:51.569Z,1012.64
2019-01-02T03:44:51.560Z,1012.72
2019-01-02T03:45:51.542Z,1012.62
2019-01-02T03:46:51.546Z,1012.57
2019-01-02T03:47:51.519Z,1012.55
2019-01-02T03:48:51.509Z,1012.57
2019-01-02T03:49:51.505Z,1012.39
2019-01-02T03:50:51.487Z,1012.43
2019-01-02T03:51:51.507Z,1012.44
2019-01-02T03:52:51.466Z,1012.38
2019-01-02T03:53:51.458Z,1012.39
2019-01-02T03:54:51.450Z,1012.40
2019-01-02T03:55:51.433Z,1012.42
2019-01-02T03:56:51.421Z,1012.47
2019-01-02T03:57:51.433Z,1012.53
2019-01-02T03:58:51.401Z,1012.55
2019-01-02T03:59:51.390Z,1012.55
2019-01-02T04:00:51.377Z,1012.46
2019-01-02T04:01:51.370Z,1012.51
2019-01-02T04:02:51.374Z,1012.47
2019-01-02T04:03:51.350Z,1012.53
2019-01-02T04:04:51.338Z,1012.54
2019-01-02T04:05:51.325Z,1012.52
2019-01-02T04:06:51.312Z,1012.61
2019-01-02T04:07:51.314Z,1012.57
2019-01-02T04:08:51.296Z,1012.58
2019-01-02T04:09:51.288Z,1012.56
2019-01-02T04:10:51.275Z,1012.62
2019-01-02T04:11:51.263Z,1012.58
2019-01-02T04:12:51.265Z,1012.60
2019-01-02T04:13:51.239Z,1012.66
2019-01-02T04:14:51.235Z,1012.61
2019-01-02T04:15:51.220Z,1012.58
2019-01-02T04:16:51.210Z,1012.73
2019-01-02T04:17:51.210Z,1012.65
2019-01-02T04:18:51.182Z,1012.65
2019-01-02T04:19:51.173Z,1012.67
2019-01-02T04:20:51.168Z,1012.67
2019-01-02T04:21:51.184Z,1012.80
2019-01-02T04:22:51.168Z,1012.74
2019-01-02T04:23:51.130Z,1012.73
2019-01-02T04:24:51.118Z,1012.72
2019-01-02T04:25:51.111Z,1012.78
2019-01-02T04:26:51.107Z,1012.72
2019-01-02T04:27:51.103Z,1012.75
2019-01-02T04:28:51.084Z,1012.74
2019-01-02T04:29:51.068Z,1012.81
2019-01-02T04:30:51.054Z,1012.82
2019-01-02T04:31:51.050Z,1012.81
2019-01-02T04:32:51.062Z,1012.79
2019-01-02T04:33:51.022Z,1012.89
2019-01-02T04:34:51.019Z,1012.84
2019-01-02T04:35:51.007Z,1012.89
2019-01-02T04:36:50.993Z,1012.88
2019-01-02T04:37:50.993Z,1012.96
2019-01-02T04:38:50.970Z,1012.94
2019-01-02T04:39:50.962Z,1013.02
2019-01-02T04:40:50.953Z,1013.02
2019-01-02T04:41:50.938Z,1013.04
2019-01-02T04:42:50.952Z,1013.02
2019-01-02T04:43:50.919Z,1013.15
2019-01-02T04:44:50.914Z,1013.15
2019-01-02T04:45:50.900Z,1013.20
2019-01-02T04:46:50.892Z,1013.18
2019-01-02T04:47:50.878Z,1013.19
2019-01-02T04:48:50.879Z,1013.17
2019-01-02T04:49:50.854Z,1013.24
2019-01-02T04:50:50.847Z,1013.22
2019-01-02T04:51:50.835Z,1013.14
2019-01-02T04:52:50.826Z,1013.16
2019-01-02T04:53:50.836Z,1013.25
2019-01-02T04:54:50.804Z,1013.23
2019-01-02T04:55:50.794Z,1013.20
2019-01-02T04:56:50.784Z,1013.16
2019-01-02T04:57:50.777Z,1013.21
2019-01-02T04:58:50.779Z,1013.11
2019-01-02T04:59:50.752Z,1013.15
2019-01-02T05:00:50.741Z,1013.13
2019-01-02T05:01:50.735Z,1013.13
2019-01-02T05:02:50.723Z,1013.12
2019-01-02T05:03:50.732Z,1013.23
2019-01-02T05:04:50.702Z,1013.13
2019-01-02T05:05:50.690Z,1013.18
2019-01-02T05:06:50.681Z,1013.19
2019-01-02T05:07:50.671Z,1013.21
2019-01-02T05:08:50.688Z,1013.21
2019-01-02T05:09:50.650Z,1013.25
2019-01-02T05:10:50.639Z,1013.30
2019-01-02T05:11:50.625Z,1013.25
2019-01-02T05:12:50.623Z,1013.28
2019-01-02T05:13:50.612Z,1013.27
2019-01-02T05:14:50.608Z,1013.36
2019-01-02T05:15:50.589Z,1013.26
2019-01-02T05:16:50.578Z,1013.34
2019-01-02T05:17:50.561Z,1013.41
2019-01-02T05:18:50.553Z,1013.36
2019-01-02T05:19:50.560Z,1013.35
2019-01-02T05:20:50.536Z,1013.33
2019-01-02T05:21:50.520Z,1013.40
2019-01-02T05:22:50.514Z,1013.39
2019-01-02T05:23:50.501Z,1013.40
2019-01-02T05:24:50.514Z,1013.46
2019-01-02T05:25:50.486Z,1013.51
2019-01-02T05:26:50.474Z,1013.43
2019-01-02T05:27:50.458Z,1013.52
2019-01-02T05:28:50.449Z,1013.51
2019-01-02T05:29:50.451Z,1013.59
2019-01-02T05:30:50.435Z,1013.61
2019-01-02T05:31:50.419Z,1013.63
2019-01-02T05:32:50.415Z,1013.67
2019-01-02T05:33:50.396Z,1013.62
2019-01-02T05:34:50.398Z,1013.72
2019-01-02T05:35:50.380Z,1013.77
2019-01-02T05:36:50.365Z,1013.74
2019-01-02T05:37:50.364Z,1013.82
2019-01-02T05:38:50.348Z,1013.83
2019-01-02T05:39:50.344Z,1013.86
2019-01-02T05:40:50.329Z,1013.85
2019-01-02T05:41:50.314Z,1013.86
2019-01-02T05:42:50.301Z,1013.89
2019-01-02T05:43:50.293Z,1013.79
2019-01-02T05:44:50.299Z,1013.96
2019-01-02T05:45:50.274Z,1013.96
2019-01-02T05:46:50.267Z,1013.89
2019-01-02T05:47:50.254Z,1014.01
2019-01-02T05:48:50.244Z,1013.96
2019-01-02T05:49:50.252Z,1013.91
2019-01-02T05:50:50.222Z,1014.00
2019-01-02T05:51:50.213Z,1013.90
2019-01-02T05:52:50.204Z,1014.00
2019-01-02T05:53:50.190Z,1014.09
2019-01-02T05:54:50.191Z,1014.14
2019-01-02T05:55:50.169Z,1014.14
2019-01-02T05:56:50.157Z,1014.21
2019-01-02T05:57:50.147Z,1014.12
2019-01-02T05:58:50.144Z,1014.14
2019-01-02T05:59:50.143Z,1014.24
2019-01-02T06:00:50.118Z,1014.24
2019-01-02T06:01:50.111Z,1014.35
2019-01-02T06:02:50.099Z,1014.25
2019-01-02T06:03:50.086Z,1014.26
2019-01-02T06:04:50.097Z,1014.29
2019-01-02T06:05:50.072Z,1014.29
2019-01-02T06:06:50.056Z,1014.28
2019-01-02T06:07:50.043Z,1014.33
2019-01-02T06:08:50.033Z,1014.35
2019-01-02T06:09:50.041Z,1014.35
2019-01-02T06:10:50.009Z,1014.34
2019-01-02T06:11:50.005Z,1014.39
2019-01-02T06:12:49.993Z,1014.36
2019-01-02T06:13:49.978Z,1014.38
2019-01-02T06:14:50.005Z,1014.43
2019-01-02T06:15:49.973Z,1014.46
2019-01-02T06:16:49.954Z,1014.50
2019-01-02T06:17:49.939Z,1014.49
2019-01-02T06:18:49.986Z,1014.57
2019-01-02T06:19:49.926Z,1014.51
2019-01-02T06:20:49.917Z,1014.50
2019-01-02T06:21:49.897Z,1014.55
2019-01-02T06:22:49.889Z,1014.59
2019-01-02T06:23:49.875Z,1014.57
2019-01-02T06:24:49.869Z,1014.61
2019-01-02T06:25:49.866Z,1014.69
2019-01-02T06:26:49.847Z,1014.64
2019-01-02T06:27:49.835Z,1014.63
2019-01-02T06:28:49.817Z,1014.70
2019-01-02T06:29:49.818Z,1014.64
2019-01-02T06:30:49.818Z,1014.66
2019-01-02T06:31:49.795Z,1014.70
2019-01-02T06:32:49.783Z,1014.59
2019-01-02T06:33:49.774Z,1014.64
2019-01-02T06:34:49.763Z,1014.67
2019-01-02T06:35:49.769Z,1014.76
2019-01-02T06:36:49.743Z,1014.77
2019-01-02T06:37:49.726Z,1014.81
2019-01-02T06:38:49.720Z,1014.81
2019-01-02T06:39:49.712Z,1014.80
2019-01-02T06:40:49.726Z,1014.80
2019-01-02T06:41:49.685Z,1014.88
2019-01-02T06:42:49.680Z,1014.89
2019-01-02T06:43:49.666Z,1014.87
2019-01-02T06:44:49.662Z,1014.95
2019-01-02T06:45:49.663Z,1014.93
2019-01-02T06:46:49.635Z,1014.92
2019-01-02T06:47:49.627Z,1014.90
2019-01-02T06:48:49.614Z,1014.99
2019-01-02T06:49:49.606Z,1014.99
2019-01-02T06:50:49.626Z,1015.05
2019-01-02T06:51:49.582Z,1015.07
2019-01-02T06:52:49.575Z,1014.99
2019-01-02T06:53:49.564Z,1015.07
2019-01-02T06:54:49.551Z,1015.08
2019-01-02T06:55:49.543Z,1015.15
2019-01-02T06:56:49.543Z,1015.12
2019-01-02T06:57:49.519Z,1015.18
2019-01-02T06:58:49.509Z,1015.15
2019-01-02T06:59:49.507Z,1015.26
2019-01-02T07:00:49.491Z,1015.28
2019-01-02T07:01:49.490Z,1015.28
2019-01-02T07:02:49.469Z,1015.35
2019-01-02T07:03:49.458Z,1015.33
2019-01-02T07:04:49.449Z,1015.35
2019-01-02T07:05:49.436Z,1015.36
2019-01-02T07:06:49.438Z,1015.44
2019-01-02T07:07:49.419Z,1015.40
2019-01-02T07:08:49.411Z,1015.46
2019-01-02T07:09:49.393Z,1015.47
2019-01-02T07:10:49.383Z,1015.48
2019-01-02T07:11:49.508Z,1015.43
2019-01-02T07:12:49.362Z,1015.56
2019-01-02T07:13:49.353Z,1015.45
2019-01-02T07:14:49.342Z,1015.61
2019-01-02T07:15:49.333Z,1015.59
2019-01-02T07:16:49.334Z,1015.57
2019-01-02T07:17:49.312Z,1015.67
2019-01-02T07:18:49.298Z,1015.71
2019-01-02T07:19:49.290Z,1015.92
2019-01-02T07:20:49.282Z,1015.98
2019-01-02T07:21:49.278Z,1016.09
2019-01-02T07:22:49.258Z,1016.02
2019-01-02T07:23:49.247Z,1016.09
2019-01-02T07:24:49.243Z,1016.06
2019-01-02T07:25:49.235Z,1016.16
2019-01-02T07:26:49.233Z,1016.09
2019-01-02T07:27:49.209Z,1016.02
2019-01-02T07:28:49.197Z,1016.06
2019-01-02T07:29:49.194Z,1016.11
2019-01-02T07:30:49.175Z,1016.10
2019-01-02T07:31:49.181Z,1016.15
2019-01-02T07:32:49.158Z,1016.10
2019-01-02T07:33:49.142Z,1016.12
2019-01-02T07:34:49.129Z,1016.14
2019-01-02T07:35:49.121Z,1016.17
2019-01-02T07:36:49.123Z,1016.21
2019-01-02T07:37:49.099Z,1016.16
2019-01-02T07:38:49.089Z,1016.23
2019-01-02T07:39:49.083Z,1016.22
2019-01-02T07:40:49.068Z,1016.27
2019-01-02T07:41:49.092Z,1016.22
2019-01-02T07:42:49.046Z,1016.19
2019-01-02T07:43:49.037Z,1016.25
2019-01-02T07:44:49.032Z,1016.25
2019-01-02T07:45:49.017Z,1016.28
2019-01-02T07:46:49.005Z,1016.29
2019-01-02T07:47:49.018Z,1016.39
2019-01-02T07:48:48.988Z,1016.42
2019-01-02T07:49:48.975Z,1016.51
2019-01-02T07:50:48.973Z,1016.53
2019-01-02T07:51:48.959Z,1016.48
2019-01-02T07:52:48.954Z,1016.61
2019-01-02T07:53:48.936Z,1016.47
2019-01-02T07:54:48.924Z,1016.62
2019-01-02T07:55:48.915Z,1016.58
2019-01-02T07:56:48.908Z,1016.48
2019-01-02T07:57:48.907Z,1016.56
2019-01-02T07:58:48.884Z,1016.74
2019-01-02T07:59:48.884Z,1016.68
2019-01-02T08:00:48.865Z,1016.72
2019-01-02T08:01:48.851Z,1016.81
2019-01-02T08:02:48.851Z,1016.84
2019-01-02T08:03:48.840Z,1016.76
2019-01-02T08:04:48.824Z,1016.77
2019-01-02T08:05:48.815Z,1016.79
2019-01-02T08:06:48.801Z,1016.78
2019-01-02T08:07:48.815Z,1016.87
2019-01-02T08:08:48.782Z,1016.87
2019-01-02T08:09:48.772Z,1016.98
2019-01-02T08:10:48.759Z,1016.91
2019-01-02T08:11:48.747Z,1016.81
2019-01-02T08:12:48.734Z,1016.96
2019-01-02T08:13:48.739Z,1017.01
2019-01-02T08:14:48.712Z,1017.15
2019-01-02T08:15:48.705Z,1017.13
2019-01-02T08:16:48.691Z,1017.15
2019-01-02T08:17:48.688Z,1017.14
2019-01-02T08:18:48.685Z,1017.26
2019-01-02T08:19:48.663Z,1017.20
2019-01-02T08:20:48.646Z,1017.14
2019-01-02T08:21:48.639Z,1017.10
2019-01-02T08:22:48.631Z,1017.21
2019-01-02T08:23:48.631Z,1017.25
2019-01-02T08:24:48.608Z,1017.33
2019-01-02T08:25:48.599Z,1017.29
2019-01-02T08:26:48.585Z,1017.31
2019-01-02T08:27:48.588Z,1017.31
2019-01-02T08:28:48.572Z,1017.39
2019-01-02T08:29:48.555Z,1017.31
2019-01-02T08:30:48.544Z,1017.24
2019-01-02T08:31:48.531Z,1017.26
2019-01-02T08:32:48.523Z,1017.39
2019-01-02T08:33:48.522Z,1017.32
2019-01-02T08:34:48.506Z,1017.27
2019-01-02T08:35:48.496Z,1017.38
2019-01-02T08:36:48.482Z,1017.48
2019-01-02T08:37:48.469Z,1017.40
2019-01-02T08:38:48.471Z,1017.41
2019-01-02T08:39:48.449Z,1017.55
2019-01-02T08:40:48.435Z,1017.41
2019-01-02T08:41:48.427Z,1017.45
2019-01-02T08:42:48.424Z,1017.55
2019-01-02T08:43:48.416Z,1017.53
2019-01-02T08:44:48.404Z,1017.51
2019-01-02T08:45:48.394Z,1017.52
2019-01-02T08:46:48.378Z,1017.58
2019-01-02T08:47:48.373Z,1017.61
2019-01-02T08:48:48.364Z,1017.58
2019-01-02T08:49:48.346Z,1017.59
2019-01-02T08:50:48.330Z,1017.65
2019-01-02T08:51:48.323Z,1017.69
2019-01-02T08:52:48.308Z,1017.58
2019-01-02T08:53:48.319Z,1017.67
2019-01-02T08:54:48.287Z,1017.70
2019-01-02T08:55:48.282Z,1017.67
2019-01-02T08:56:48.267Z,1017.72
2019-01-02T08:57:48.258Z,1017.71
2019-01-02T08:58:48.257Z,1017.76
2019-01-02T08:59:48.243Z,1017.72
2019-01-02T09:00:48.233Z,1017.73
2019-01-02T09:01:48.213Z,1017.88
2019-01-02T09:02:48.203Z,1017.88
2019-01-02T09:03:48.214Z,1017.86
2019-01-02T09:04:48.187Z,1017.90
2019-01-02T09:05:48.174Z,1017.94
2019-01-02T09:06:48.165Z,1017.84
2019-01-02T09:07:48.152Z,1017.96
2019-01-02T09:08:48.141Z,1017.93
2019-01-02T09:09:48.142Z,1017.99
2019-01-02T09:10:48.121Z,1018.08
2019-01-02T09:11:48.115Z,1018.10
2019-01-02T09:12:48.101Z,1018.05
2019-01-02T09:13:48.089Z,1018.20
2019-01-02T09:14:48.099Z,1018.21
2019-01-02T09:15:48.072Z,1018.22
2019-01-02T09:16:48.058Z,1018.29
2019-01-02T09:17:48.046Z,1018.37
2019-01-02T09:18:48.037Z,1018.50
2019-01-02T09:19:48.036Z,1018.54
2019-01-02T09:20:48.023Z,1018.61
2019-01-02T09:21:47.998Z,1018.65
2019-01-02T09:22:47.995Z,1018.70
2019-01-02T09:23:47.982Z,1018.70
2019-01-02T09:24:47.991Z,1018.76
2019-01-02T09:25:47.973Z,1018.81
2019-01-02T09:26:47.954Z,1018.77
2019-01-02T09:27:47.941Z,1018.78
2019-01-02T09:28:47.956Z,1018.79
2019-01-02T09:29:47.937Z,1018.89
2019-01-02T09:30:47.907Z,1018.84
2019-01-02T09:31:47.893Z,1018.80
2019-01-02T09:32:47.891Z,1018.86
2019-01-02T09:33:52.229Z,1018.85
2019-01-02T09:34:47.995Z,1018.92
2019-01-02T09:35:47.877Z,1018.88
2019-01-02T09:36:47.845Z,1018.96
2019-01-02T09:37:47.841Z,1018.96
2019-01-02T09:38:47.822Z,1018.99
2019-01-02T09:39:47.828Z,1018.97
2019-01-02T09:40:47.863Z,1018.98
2019-01-02T09:41:47.802Z,1019.02
2019-01-02T09:42:47.786Z,1019.03
2019-01-02T09:43:47.769Z,1019.02
2019-01-02T09:44:47.776Z,1019.04
2019-01-02T09:45:47.751Z,1019.03
2019-01-02T09:46:47.746Z,1018.99
2019-01-02T09:47:47.732Z,1019.06
2019-01-02T09:48:47.718Z,1019.11
2019-01-02T09:49:47.719Z,1019.13
2019-01-02T09:50:47.696Z,1019.16
2019-01-02T09:51:47.688Z,1019.18
2019-01-02T09:52:47.672Z,1019.16
2019-01-02T09:53:47.664Z,1019.16
2019-01-02T09:54:47.672Z,1019.24
2019-01-02T09:55:47.646Z,1019.19
2019-01-02T09:56:47.629Z,1019.16
2019-01-02T09:57:47.625Z,1019.21
2019-01-02T09:58:47.612Z,1019.24
2019-01-02T09:59:47.614Z,1019.23
2019-01-02T10:00:47.600Z,1019.29
2019-01-02T10:01:47.584Z,1019.30
2019-01-02T10:02:47.573Z,1019.35
2019-01-02T10:03:47.560Z,1019.32
2019-01-02T10:04:47.598Z,1019.34
2019-01-02T10:05:47.539Z,1019.34
2019-01-02T10:06:47.528Z,1019.34
2019-01-02T10:07:47.519Z,1019.36
2019-01-02T10:08:47.505Z,1019.32
2019-01-02T10:09:47.495Z,1019.33
2019-01-02T10:10:47.499Z,1019.35
2019-01-02T10:11:47.476Z,1019.32
2019-01-02T10:12:47.462Z,1019.40
2019-01-02T10:13:47.461Z,1019.40
2019-01-02T10:14:47.440Z,1019.41
2019-01-02T10:15:47.444Z,1019.35
2019-01-02T10:16:47.419Z,1019.37
2019-01-02T10:17:50.193Z,1019.37
2019-01-02T10:18:47.414Z,1019.38
2019-01-02T10:19:47.388Z,1019.37
2019-01-02T10:20:47.412Z,1019.37
2019-01-02T10:21:47.367Z,1019.43
2019-01-02T10:22:47.360Z,1019.43
2019-01-02T10:23:47.348Z,1019.43
2019-01-02T10:24:47.338Z,1019.44
2019-01-02T10:25:47.338Z,1019.41
2019-01-02T10:26:47.335Z,1019.38
2019-01-02T10:27:47.305Z,1019.41
2019-01-02T10:28:47.296Z,1019.42
2019-01-02T10:29:47.281Z,1019.45
2019-01-02T10:30:47.276Z,1019.47
2019-01-02T10:31:47.287Z,1019.45
2019-01-02T10:32:47.251Z,1019.51
2019-01-02T10:33:47.243Z,1019.57
2019-01-02T10:34:47.235Z,1019.46
2019-01-02T10:35:47.225Z,1019.52
2019-01-02T10:36:47.227Z,1019.53
2019-01-02T10:37:47.202Z,1019.57
2019-01-02T10:38:47.198Z,1019.55
2019-01-02T10:39:47.183Z,1019.57
2019-01-02T10:40:47.167Z,1019.60
2019-01-02T10:41:47.173Z,1019.57
2019-01-02T10:42:47.148Z,1019.58
2019-01-02T10:43:47.138Z,1019.55
2019-01-02T10:44:47.127Z,1019.57
2019-01-02T10:45:47.117Z,1019.62
2019-01-02T10:46:47.120Z,1019.63
2019-01-02T10:47:47.104Z,1019.60
2019-01-02T10:48:47.090Z,1019.67
2019-01-02T10:49:47.070Z,1019.74
2019-01-02T10:50:47.071Z,1019.62
2019-01-02T10:51:47.068Z,1019.67
2019-01-02T10:52:47.041Z,1019.72
2019-01-02T10:53:47.032Z,1019.78
2019-01-02T10:54:47.021Z,1019.72
2019-01-02T10:55:47.010Z,1019.74
2019-01-02T10:56:47.016Z,1019.74
2019-01-02T10:57:46.989Z,1019.80
2019-01-02T10:58:46.977Z,1019.84
2019-01-02T10:59:46.987Z,1019.81
2019-01-02T11:00:46.953Z,1019.81
2019-01-02T11:01:46.961Z,1019.82
2019-01-02T11:02:46.933Z,1019.84
2019-01-02T11:03:46.926Z,1019.89
2019-01-02T11:04:46.911Z,1019.85
2019-01-02T11:05:46.902Z,1019.86
2019-01-02T11:06:46.921Z,1019.91
2019-01-02T11:07:46.880Z,1020.04
2019-01-02T11:08:46.875Z,1020.04
2019-01-02T11:09:46.861Z,1020.06
2019-01-02T11:10:46.853Z,1020.05
2019-01-02T11:11:46.842Z,1020.00
2019-01-02T11:12:46.847Z,1020.07
2019-01-02T11:13:46.824Z,1020.08
2019-01-02T11:14:46.813Z,1020.05
2019-01-02T11:15:46.797Z,1020.09
2019-01-02T11:16:46.793Z,1020.07
2019-01-02T11:17:48.672Z,1019.99
2019-01-02T11:18:46.767Z,1020.17
2019-01-02T11:19:46.756Z,1020.12
2019-01-02T11:20:46.748Z,1020.11
2019-01-02T11:21:46.735Z,1020.05
2019-01-02T11:22:46.777Z,1020.12
2019-01-02T11:23:46.714Z,1020.09
2019-01-02T11:24:46.706Z,1020.05
2019-01-02T11:25:46.693Z,1020.11
2019-01-02T11:26:46.679Z,1020.11
2019-01-02T11:27:46.681Z,1020.20
2019-01-02T11:28:46.662Z,1020.24
2019-01-02T11:29:46.664Z,1020.22
2019-01-02T11:30:46.647Z,1020.23
2019-01-02T11:31:46.625Z,1020.23
2019-01-02T11:32:46.627Z,1020.28
2019-01-02T11:33:46.609Z,1020.23
2019-01-02T11:34:46.603Z,1020.31
2019-01-02T11:35:46.587Z,1020.31
2019-01-02T11:36:46.581Z,1020.33
2019-01-02T11:37:46.583Z,1020.27
2019-01-02T11:38:46.557Z,1020.28
2019-01-02T11:39:46.548Z,1020.30
2019-01-02T11:40:46.535Z,1020.38
2019-01-02T11:41:46.541Z,1020.39
2019-01-02T11:42:46.531Z,1020.41
2019-01-02T11:43:46.504Z,1020.43
2019-01-02T11:44:46.512Z,1020.55
2019-01-02T11:45:46.479Z,1020.36
2019-01-02T11:46:46.511Z,1020.40
2019-01-02T11:47:46.472Z,1020.54
2019-01-02T11:48:47.790Z,1020.38
2019-01-02T11:49:46.448Z,1020.38
2019-01-02T11:50:46.431Z,1020.40
2019-01-02T11:51:46.420Z,1020.47
2019-01-02T11:52:46.419Z,1020.47
2019-01-02T11:53:46.397Z,1020.50
2019-01-02T11:54:46.388Z,1020.46
2019-01-02T11:55:46.374Z,1020.62
2019-01-02T11:56:46.375Z,1020.60
2019-01-02T11:57:46.374Z,1020.63
2019-01-02T11:58:49.936Z,1020.59
2019-01-02T11:59:46.333Z,1020.63
2019-01-02T12:00:46.348Z,1020.59
2019-01-02T12:01:46.388Z,1020.65
2019-01-02T12:02:46.325Z,1020.64
2019-01-02T12:03:46.297Z,1020.67
2019-01-02T12:04:46.279Z,1020.72
2019-01-02T12:05:46.285Z,1020.65